Time;durP1;ratioP1;P1;durP2;ratioP2;P2;SDS_P1;SDS_P2;PMS_P1;PMS_P2;Temp;Humidity;BMP_temperature;BMP_pressure;BME280_temperature;BME280_humidity;BME280_pressure;Samples;Min_cycle;Max_cycle;Signal;HPM_P1;HPM_P2
2023/06/27 00:00:55;;;;;;;;;;;;;;;30.57;30.93;94637.53;5043128;28;7260;-63
2023/06/27 00:03:29;;;;;;;;;;;;;;;30.58;30.86;94638.28;5063098;28;7726;-63
2023/06/27 00:06:05;;;;;;;;;;;;;;;30.58;31.40;94635.50;5026324;28;8807;-63
2023/06/27 00:08:49;;;;;;;;;;;;;;;30.54;30.76;94624.69;5046253;28;7216;-63
2023/06/27 00:11:15;;;;;;;;;;;;;;;30.53;30.93;94632.31;5024580;28;7997;-63
2023/06/27 00:13:44;;;;;;;;;;;;;;;30.55;31.17;94631.75;5046186;28;7239;-63
2023/06/27 00:16:15;;;;;;;;;;;;;;;30.55;30.90;94637.31;5023340;28;7206;-62
2023/06/27 00:18:47;;;;;;;;;;;;;;;30.53;30.41;94634.34;5029743;28;7460;-63
2023/06/27 00:21:29;;;;;;;;;;;;;;;30.50;30.92;94638.94;5031019;28;9033;-63
2023/06/27 00:24:32;;;;;;;;;;;;;;;30.51;30.53;94648.00;5048341;28;6984;-63
2023/06/27 00:27:15;;;;;;;;;;;;;;;30.50;30.72;94647.25;5024329;28;9270;-62
2023/06/27 00:30:16;;;;;;;;;;;;;;;30.48;30.37;94654.63;5062926;28;9111;-62
2023/06/27 00:32:45;;;;;;;;;;;;;;;30.48;30.63;94649.81;5025800;28;7011;-63
2023/06/27 00:36:02;;;;;;;;;;;;;;;30.45;30.07;94653.66;5062896;28;8373;-62
2023/06/27 00:38:36;;;;;;;;;;;;;;;30.45;30.66;94655.69;4972525;28;7389;-62
2023/06/27 00:41:41;;;;;;;;;;;;;;;30.44;30.01;94649.41;4986312;28;7077;-62
2023/06/27 00:44:39;;;;;;;;;;;;;;;30.41;31.14;94638.63;4999951;28;7547;-63
2023/06/27 00:47:18;;;;;;;;;;;;;;;30.42;30.89;94645.69;4933842;28;9091;-62
2023/06/27 00:50:07;;;;;;;;;;;;;;;30.40;31.21;94649.00;4948398;29;7515;-62
2023/06/27 00:52:52;;;;;;;;;;;;;;;30.41;30.16;94644.91;4923243;29;7275;-63
2023/06/27 00:55:21;;;;;;;;;;;;;;;30.41;30.59;94647.69;4921958;29;7191;-63
2023/06/27 00:57:50;;;;;;;;;;;;;;;30.40;30.17;94651.78;4937343;29;7316;-62
2023/06/27 01:03:55;;;;;;;;;;;;;;;30.38;29.74;94657.09;4939168;28;9065;-62
2023/06/27 01:06:55;;;;;;;;;;;;;;;30.38;30.71;94650.81;4938192;29;7233;-63
2023/06/27 01:09:58;;;;;;;;;;;;;;;30.34;30.71;94651.13;4957834;28;7268;-62
2023/06/27 01:13:08;;;;;;;;;;;;;;;30.32;31.00;94653.69;4955458;28;6997;-63
2023/06/27 01:16:19;;;;;;;;;;;;;;;30.35;29.82;94651.88;4985019;28;7316;-62
2023/06/27 01:18:47;;;;;;;;;;;;;;;30.33;29.58;94649.66;4994829;28;7094;-63
2023/06/27 01:21:32;;;;;;;;;;;;;;;30.33;30.15;94648.88;4992886;28;9073;-63
2023/06/27 01:24:32;;;;;;;;;;;;;;;30.28;30.09;94655.25;4994326;28;7017;-63
2023/06/27 01:26:58;;;;;;;;;;;;;;;30.26;29.90;94652.28;5012850;28;8467;-63
2023/06/27 01:29:44;;;;;;;;;;;;;;;30.26;29.74;94649.50;5000070;28;8715;-63
2023/06/27 01:32:21;;;;;;;;;;;;;;;30.27;30.52;94646.22;5016464;28;7385;-63
2023/06/27 01:35:19;;;;;;;;;;;;;;;30.27;29.85;94656.56;5000551;28;9409;-63
2023/06/27 01:38:10;;;;;;;;;;;;;;;30.27;29.75;94657.31;5015138;28;8936;-63
2023/06/27 01:40:42;;;;;;;;;;;;;;;30.26;29.65;94650.25;4998498;28;7276;-63
2023/06/27 01:43:54;;;;;;;;;;;;;;;30.27;30.51;94657.31;5016857;28;7611;-63
2023/06/27 01:46:23;;;;;;;;;;;;;;;30.27;29.39;94646.22;5015066;28;7287;-63
2023/06/27 01:49:03;;;;;;;;;;;;;;;30.28;30.41;94653.25;5053280;28;7350;-63
2023/06/27 01:51:32;;;;;;;;;;;;;;;30.26;30.34;94661.34;5029110;28;6986;-63
2023/06/27 01:54:34;;;;;;;;;;;;;;;30.25;29.71;94646.00;5065788;28;6964;-62
2023/06/27 01:57:12;;;;;;;;;;;;;;;30.26;29.92;94650.25;4939850;28;7398;-63
2023/06/27 01:59:39;;;;;;;;;;;;;;;30.24;30.50;94652.81;4935101;28;7311;-63
2023/06/27 02:02:25;;;;;;;;;;;;;;;30.25;30.44;94659.88;4955606;28;7258;-63
2023/06/27 02:05:20;;;;;;;;;;;;;;;30.22;30.27;94647.06;4953647;28;8969;-63
2023/06/27 02:08:05;;;;;;;;;;;;;;;30.21;29.12;94647.63;4933834;28;7271;-62
2023/06/27 02:10:49;;;;;;;;;;;;;;;30.20;29.66;94648.88;4946804;28;8695;-62
2023/06/27 02:13:25;;;;;;;;;;;;;;;30.18;29.83;94649.41;4946429;28;7488;-63
2023/06/27 02:15:52;;;;;;;;;;;;;;;30.16;30.20;94652.00;4945922;28;7149;-63
2023/06/27 02:18:31;;;;;;;;;;;;;;;30.15;30.68;94649.72;4934823;28;9067;-63
2023/06/27 02:20:58;;;;;;;;;;;;;;;30.15;29.44;94647.72;4935464;28;9170;-63
2023/06/27 02:23:44;;;;;;;;;;;;;;;30.14;29.84;94649.00;4930051;28;7195;-62
2023/06/27 02:26:34;;;;;;;;;;;;;;;30.15;30.08;94650.47;4954956;28;7291;-62
2023/06/27 02:29:30;;;;;;;;;;;;;;;30.14;30.38;94643.47;4948720;28;8624;-62
2023/06/27 02:32:30;;;;;;;;;;;;;;;30.12;29.38;94640.47;4946787;28;9183;-62
2023/06/27 02:34:57;;;;;;;;;;;;;;;30.14;29.73;94640.69;4973413;28;7475;-62
2023/06/27 02:37:42;;;;;;;;;;;;;;;30.13;29.45;94646.75;4956713;28;7005;-62
2023/06/27 02:41:03;;;;;;;;;;;;;;;30.13;29.23;94650.28;4973582;28;7272;-62
2023/06/27 02:44:12;;;;;;;;;;;;;;;30.12;30.04;94639.72;4957440;28;7177;-62
2023/06/27 02:46:48;;;;;;;;;;;;;;;30.09;29.85;94641.53;4974103;28;7267;-62
2023/06/27 02:49:27;;;;;;;;;;;;;;;30.12;29.40;94640.47;4957778;28;9057;-62
2023/06/27 02:51:53;;;;;;;;;;;;;;;30.09;30.11;94635.97;4957715;28;9147;-62
2023/06/27 02:54:29;;;;;;;;;;;;;;;30.08;29.23;94645.56;4955748;28;9095;-63
2023/06/27 02:57:05;;;;;;;;;;;;;;;30.03;29.48;94646.44;4971933;28;8737;-62
2023/06/27 03:00:00;;;;;;;;;;;;;;;30.03;29.08;94646.44;4971589;28;7746;-62
2023/06/27 03:02:35;;;;;;;;;;;;;;;30.03;29.55;94651.25;4937390;28;7067;-62
2023/06/27 03:05:20;;;;;;;;;;;;;;;30.00;29.30;94647.50;4954195;28;7218;-62
2023/06/27 03:07:58;;;;;;;;;;;;;;;29.99;29.38;94651.56;4959961;28;7260;-62
2023/06/27 03:10:42;;;;;;;;;;;;;;;30.03;29.33;94649.22;4973143;28;8829;-62
2023/06/27 03:13:10;;;;;;;;;;;;;;;30.02;29.19;94649.75;4952427;28;7447;-62
2023/06/27 03:15:54;;;;;;;;;;;;;;;30.02;28.74;94646.97;4954461;28;7227;-62
2023/06/27 03:18:20;;;;;;;;;;;;;;;30.05;29.94;94652.22;4968885;28;7244;-62
2023/06/27 03:21:06;;;;;;;;;;;;;;;29.99;30.02;94654.34;4956041;28;7231;-62
2023/06/27 03:24:11;;;;;;;;;;;;;;;30.01;29.83;94649.00;4956353;28;7209;-62
2023/06/27 03:27:14;;;;;;;;;;;;;;;29.99;30.09;94648.06;4973154;28;7999;-62
2023/06/27 03:29:51;;;;;;;;;;;;;;;29.98;29.16;94652.09;4967353;28;9108;-62
2023/06/27 03:32:29;;;;;;;;;;;;;;;29.96;29.48;94651.88;4968320;28;7266;-63
2023/06/27 03:35:10;;;;;;;;;;;;;;;29.96;29.07;94654.66;4972264;28;7205;-62
2023/06/27 03:38:06;;;;;;;;;;;;;;;29.94;28.70;94663.50;4954147;28;6869;-63
2023/06/27 03:41:00;;;;;;;;;;;;;;;29.94;28.97;94657.22;4957108;28;7153;-63
2023/06/27 03:43:35;;;;;;;;;;;;;;;29.92;28.94;94649.44;4965423;28;8622;-63
2023/06/27 03:46:14;;;;;;;;;;;;;;;29.89;29.51;94649.75;4965233;28;7317;-62
2023/06/27 03:48:41;;;;;;;;;;;;;;;29.91;29.41;94652.72;4964762;28;9074;-62
2023/06/27 03:51:07;;;;;;;;;;;;;;;29.93;29.02;94652.97;4962774;28;9158;-63
2023/06/27 03:54:11;;;;;;;;;;;;;;;29.94;29.33;94649.66;4951905;28;7250;-63
2023/06/27 03:56:54;;;;;;;;;;;;;;;29.92;29.38;94654.22;4952266;28;7261;-62
2023/06/27 03:59:21;;;;;;;;;;;;;;;29.93;29.57;94645.38;4965240;28;7176;-62
2023/06/27 04:01:55;;;;;;;;;;;;;;;29.91;29.47;94647.94;4952901;28;7255;-62
2023/06/27 04:04:22;;;;;;;;;;;;;;;29.92;29.75;94641.13;5030159;28;8836;-62
2023/06/27 04:07:08;;;;;;;;;;;;;;;29.92;29.09;94646.66;5023649;28;7128;-62
2023/06/27 04:09:35;;;;;;;;;;;;;;;29.90;28.95;94651.25;5062686;28;7217;-62
2023/06/27 04:12:01;;;;;;;;;;;;;;;29.91;29.06;94652.72;5063988;28;8894;-62
2023/06/27 04:14:33;;;;;;;;;;;;;;;29.89;28.59;94653.28;5048130;28;9325;-62
2023/06/27 04:17:06;;;;;;;;;;;;;;;29.87;28.80;94646.75;5064938;28;7253;-61
2023/06/27 04:19:48;;;;;;;;;;;;;;;29.89;28.65;94646.97;5032517;28;8363;-62
2023/06/27 04:22:14;;;;;;;;;;;;;;;29.87;29.79;94653.06;5029525;28;7823;-63
2023/06/27 04:24:41;;;;;;;;;;;;;;;29.87;28.87;94657.84;5027765;28;7070;-63
2023/06/27 04:27:10;;;;;;;;;;;;;;;29.83;28.91;94657.44;5020926;28;9031;-62
2023/06/27 04:29:43;;;;;;;;;;;;;;;29.84;29.03;94653.38;5009625;28;6891;-63
2023/06/27 04:32:09;;;;;;;;;;;;;;;29.82;29.45;94651.13;5028224;28;7411;-62
2023/06/27 04:34:38;;;;;;;;;;;;;;;29.83;29.05;94657.44;5041949;28;7425;-63
2023/06/27 04:37:04;;;;;;;;;;;;;;;29.82;29.46;94653.19;5026207;28;9062;-62
2023/06/27 04:39:36;;;;;;;;;;;;;;;29.81;29.82;94655.19;5041492;28;9478;-62
2023/06/27 04:42:06;;;;;;;;;;;;;;;29.82;29.46;94659.44;5025987;28;6953;-62
2023/06/27 04:44:34;;;;;;;;;;;;;;;29.82;29.57;94650.41;5030515;28;9177;-62
2023/06/27 04:47:08;;;;;;;;;;;;;;;29.78;30.09;94645.16;5043137;28;7060;-62
2023/06/27 04:49:50;;;;;;;;;;;;;;;29.79;29.86;94646.66;5022269;28;9130;-62
2023/06/27 04:52:23;;;;;;;;;;;;;;;29.77;29.48;94647.22;5030876;28;7062;-62
2023/06/27 04:54:51;;;;;;;;;;;;;;;29.77;29.12;94654.78;5028749;28;7034;-62
2023/06/27 04:57:17;;;;;;;;;;;;;;;29.79;29.87;94652.22;5041399;28;7235;-62
2023/06/27 04:59:44;;;;;;;;;;;;;;;29.76;30.06;94648.47;5049846;28;7213;-62
2023/06/27 05:02:10;;;;;;;;;;;;;;;29.77;29.25;94649.22;5019876;28;7007;-61
2023/06/27 05:04:39;;;;;;;;;;;;;;;29.81;28.96;94655.19;5025132;28;6965;-61
2023/06/27 05:07:29;;;;;;;;;;;;;;;29.79;29.62;94649.44;5019782;28;7154;-61
2023/06/27 05:10:06;;;;;;;;;;;;;;;29.86;30.86;94654.34;5040451;28;7485;-62
2023/06/27 05:13:05;;;;;;;;;;;;;;;29.88;31.87;94664.91;5026575;28;7075;-62
2023/06/27 05:15:32;;;;;;;;;;;;;;;29.85;31.08;94663.94;4951165;28;7562;-62
2023/06/27 05:18:07;;;;;;;;;;;;;;;29.86;32.37;94665.44;4981507;28;7902;-61
2023/06/27 05:20:47;;;;;;;;;;;;;;;29.84;34.12;94659.66;4965379;28;7991;-61
2023/06/27 05:23:43;;;;;;;;;;;;;;;29.85;35.47;94654.88;4949817;28;7329;-61
2023/06/27 05:26:11;;;;;;;;;;;;;;;29.84;34.16;94651.34;4891142;29;6988;-62
2023/06/27 05:28:52;;;;;;;;;;;;;;;29.83;32.54;94649.09;4909791;29;7176;-63
2023/06/27 05:31:19;;;;;;;;;;;;;;;29.82;31.70;94650.41;4908965;29;8038;-62
2023/06/27 05:34:01;;;;;;;;;;;;;;;29.77;31.26;94644.44;4910639;29;7325;-62
2023/06/27 05:36:33;;;;;;;;;;;;;;;29.78;30.43;94650.69;4909268;29;8849;-62
2023/06/27 05:39:02;;;;;;;;;;;;;;;29.78;30.58;94659.03;4910384;29;7658;-62
2023/06/27 05:41:44;;;;;;;;;;;;;;;29.77;30.33;94657.53;4913833;29;9035;-63
2023/06/27 05:45:06;;;;;;;;;;;;;;;29.76;30.22;94656.03;4913315;29;7097;-62
2023/06/27 05:47:44;;;;;;;;;;;;;;;29.75;29.83;94654.56;4855824;29;7281;-63
2023/06/27 05:50:20;;;;;;;;;;;;;;;29.73;29.07;94655.03;4861582;29;7265;-63
2023/06/27 05:52:47;;;;;;;;;;;;;;;29.74;29.21;94650.28;4916432;29;7265;-64
2023/06/27 05:55:15;;;;;;;;;;;;;;;29.72;29.72;94642.47;4933480;29;8780;-63
2023/06/27 05:57:44;;;;;;;;;;;;;;;29.73;29.64;94654.31;4933670;29;7236;-63
2023/06/27 06:00:30;;;;;;;;;;;;;;;29.72;28.65;94659.09;4914067;29;7276;-63
2023/06/27 06:03:00;;;;;;;;;;;;;;;29.72;28.93;94650.03;4941102;28;7824;-63
2023/06/27 06:05:39;;;;;;;;;;;;;;;29.72;28.76;94656.34;4954148;28;7607;-62
2023/06/27 06:08:22;;;;;;;;;;;;;;;29.72;28.84;94648.00;4950631;28;7062;-62
2023/06/27 06:14:11;;;;;;;;;;;;;;;29.70;29.92;94645.03;4974111;28;9234;-63
2023/06/27 06:16:54;;;;;;;;;;;;;;;29.69;29.37;94648.31;4988644;28;7089;-63
2023/06/27 06:19:28;;;;;;;;;;;;;;;29.69;29.33;94648.31;4952431;28;7626;-62
2023/06/27 06:22:08;;;;;;;;;;;;;;;29.70;29.17;94647.06;5011237;28;9297;-63
2023/06/27 06:24:44;;;;;;;;;;;;;;;29.68;29.42;94638.53;5050105;28;7819;-63
2023/06/27 06:27:13;;;;;;;;;;;;;;;29.67;29.00;94634.25;5033809;28;8778;-62
2023/06/27 06:29:40;;;;;;;;;;;;;;;29.64;29.29;94629.78;5049606;28;8503;-63
2023/06/27 06:32:08;;;;;;;;;;;;;;;29.66;29.65;94643.84;5034394;28;7001;-63
2023/06/27 06:34:53;;;;;;;;;;;;;;;29.66;29.42;94643.84;5025449;28;6998;-63
2023/06/27 06:38:01;;;;;;;;;;;;;;;29.68;29.70;94646.84;5060721;28;9367;-63
2023/06/27 06:40:43;;;;;;;;;;;;;;;29.63;29.93;94633.81;5027217;28;7622;-63
2023/06/27 06:43:23;;;;;;;;;;;;;;;29.60;29.85;94640.44;5030178;28;7246;-63
2023/06/27 06:45:54;;;;;;;;;;;;;;;29.61;29.57;94647.47;5025588;28;8443;-63
2023/06/27 06:48:41;;;;;;;;;;;;;;;29.61;29.27;94642.66;5023815;28;7281;-63
2023/06/27 06:51:11;;;;;;;;;;;;;;;29.60;29.30;94635.63;5028976;28;7672;-63
2023/06/27 06:54:14;;;;;;;;;;;;;;;29.61;29.85;94642.66;5029223;28;7857;-63
2023/06/27 06:56:54;;;;;;;;;;;;;;;29.59;29.28;94636.16;5029816;28;7611;-63
2023/06/27 06:59:21;;;;;;;;;;;;;;;29.62;29.08;94632.34;5046905;28;7200;-62
2023/06/27 07:01:58;;;;;;;;;;;;;;;29.61;29.34;94626.03;5031740;28;6980;-62
2023/06/27 07:04:35;;;;;;;;;;;;;;;29.63;28.66;94648.44;5027345;28;7994;-63
2023/06/27 07:07:01;;;;;;;;;;;;;;;29.61;29.77;94648.22;5025288;28;7074;-63
2023/06/27 07:09:28;;;;;;;;;;;;;;;29.62;30.21;94646.19;5045157;28;7236;-62
2023/06/27 07:12:26;;;;;;;;;;;;;;;29.60;30.37;94643.22;5029748;28;7248;-62
2023/06/27 07:15:02;;;;;;;;;;;;;;;29.59;30.41;94644.47;4962515;28;7073;-62
2023/06/27 07:18:01;;;;;;;;;;;;;;;29.60;30.17;94634.91;4965165;28;7237;-62
2023/06/27 07:20:29;;;;;;;;;;;;;;;29.58;29.22;94634.69;4933063;28;9410;-62
2023/06/27 07:22:55;;;;;;;;;;;;;;;29.60;29.71;94634.91;4929421;28;7617;-61
2023/06/27 07:25:28;;;;;;;;;;;;;;;29.59;29.73;94636.91;4933863;28;7029;-62
2023/06/27 07:27:57;;;;;;;;;;;;;;;29.59;29.95;94638.94;4930523;28;7635;-62
2023/06/27 07:30:45;;;;;;;;;;;;;;;29.59;29.85;94633.38;4934859;28;8681;-62
2023/06/27 07:33:21;;;;;;;;;;;;;;;29.60;30.04;94643.22;4930877;28;6994;-62
2023/06/27 07:35:47;;;;;;;;;;;;;;;29.57;30.71;94642.25;4933388;28;7288;-62
2023/06/27 07:38:23;;;;;;;;;;;;;;;29.65;30.38;94647.88;4947200;28;7495;-61
2023/06/27 07:40:51;;;;;;;;;;;;;;;29.65;30.05;94639.56;4934219;28;9186;-61
2023/06/27 07:43:28;;;;;;;;;;;;;;;29.64;30.54;94640.88;4945366;28;7461;-61
2023/06/27 07:46:11;;;;;;;;;;;;;;;29.65;30.01;94634.78;4946876;28;9250;-61
2023/06/27 07:48:46;;;;;;;;;;;;;;;29.64;30.07;94643.63;4931325;28;7491;-62
2023/06/27 07:51:21;;;;;;;;;;;;;;;29.63;30.21;94631.81;4964242;28;8500;-62
2023/06/27 07:54:00;;;;;;;;;;;;;;;29.64;30.14;94632.56;4999300;28;7260;-62
2023/06/27 07:56:27;;;;;;;;;;;;;;;29.66;30.19;94632.75;5022616;28;7313;-61
2023/06/27 07:58:59;;;;;;;;;;;;;;;29.67;30.13;94631.47;5056774;28;9049;-62
2023/06/27 08:01:30;;;;;;;;;;;;;;;29.68;30.00;94624.66;5022810;28;7228;-62
2023/06/27 08:03:58;;;;;;;;;;;;;;;29.67;30.20;94620.38;5022419;28;7285;-62
2023/06/27 08:06:42;;;;;;;;;;;;;;;29.66;31.06;94622.44;5029346;28;7236;-62
2023/06/27 08:09:42;;;;;;;;;;;;;;;29.67;30.66;94620.38;5026209;28;7482;-62
2023/06/27 08:12:41;;;;;;;;;;;;;;;29.67;30.40;94614.84;5045526;28;7215;-62
2023/06/27 08:15:16;;;;;;;;;;;;;;;29.70;30.05;94611.00;4968297;28;9133;-62
2023/06/27 08:17:44;;;;;;;;;;;;;;;29.69;30.69;94612.28;4964460;28;9191;-63
2023/06/27 08:20:11;;;;;;;;;;;;;;;29.69;30.49;94612.28;4963486;28;7236;-62
2023/06/27 08:22:37;;;;;;;;;;;;;;;29.68;30.94;94608.78;4947192;28;7579;-62
2023/06/27 08:25:03;;;;;;;;;;;;;;;29.68;31.30;94611.56;4952697;28;7000;-62
2023/06/27 08:27:39;;;;;;;;;;;;;;;29.70;30.05;94605.47;4954048;28;6988;-62
2023/06/27 08:30:18;;;;;;;;;;;;;;;29.69;30.02;94603.97;4968523;28;7195;-62
2023/06/27 08:32:50;;;;;;;;;;;;;;;29.70;30.14;94605.47;4966589;28;7213;-62
2023/06/27 08:35:41;;;;;;;;;;;;;;;29.72;30.72;94614.00;4968522;28;8851;-62
2023/06/27 08:38:24;;;;;;;;;;;;;;;29.72;30.89;94614.00;4968756;28;7082;-63
2023/06/27 08:40:54;;;;;;;;;;;;;;;29.70;30.69;94600.66;4966433;28;8705;-63
2023/06/27 08:43:29;;;;;;;;;;;;;;;29.72;30.88;94600.88;4968751;28;7981;-63
2023/06/27 08:46:09;;;;;;;;;;;;;;;29.75;31.07;94605.38;4952613;28;7248;-62
2023/06/27 08:48:43;;;;;;;;;;;;;;;29.79;31.31;94607.84;4953712;28;7201;-63
2023/06/27 08:51:15;;;;;;;;;;;;;;;29.77;31.38;94610.41;5007830;28;7359;-63
2023/06/27 08:54:22;;;;;;;;;;;;;;;29.79;30.45;94618.94;5028794;28;7223;-63
2023/06/27 08:57:00;;;;;;;;;;;;;;;29.79;30.24;94613.38;5027525;28;9425;-63
2023/06/27 08:59:42;;;;;;;;;;;;;;;29.82;31.45;94612.31;5010672;28;7584;-62
2023/06/27 09:02:21;;;;;;;;;;;;;;;29.80;31.11;94601.00;5013175;28;8866;-62
2023/06/27 09:04:59;;;;;;;;;;;;;;;29.84;30.99;94609.75;5028528;28;9059;-62
2023/06/27 09:07:57;;;;;;;;;;;;;;;29.88;30.33;94610.19;5013284;28;7927;-62
2023/06/27 09:10:25;;;;;;;;;;;;;;;29.89;30.83;94600.56;4947885;28;7333;-62
2023/06/27 09:13:12;;;;;;;;;;;;;;;29.89;31.63;94600.56;4976230;28;8531;-63
2023/06/27 09:15:45;;;;;;;;;;;;;;;29.87;31.67;94602.38;4976256;28;9255;-63
2023/06/27 09:18:11;;;;;;;;;;;;;;;29.84;31.26;94592.38;4974577;28;7261;-62
2023/06/27 09:20:54;;;;;;;;;;;;;;;29.91;30.77;94603.56;4977666;28;7222;-62
2023/06/27 09:23:23;;;;;;;;;;;;;;;29.92;31.40;94605.06;4975727;28;9124;-62
2023/06/27 09:26:08;;;;;;;;;;;;;;;29.93;31.58;94611.38;4975681;28;7289;-63
2023/06/27 09:29:09;;;;;;;;;;;;;;;29.94;31.09;94604.53;4966909;28;9022;-62
2023/06/27 09:31:44;;;;;;;;;;;;;;;29.96;31.14;94610.28;4974319;28;9070;-62
2023/06/27 09:34:17;;;;;;;;;;;;;;;29.97;32.01;94609.00;4991164;28;7544;-62
2023/06/27 09:36:46;;;;;;;;;;;;;;;29.97;31.21;94611.78;4984504;28;7272;-62
2023/06/27 09:39:16;;;;;;;;;;;;;;;29.97;31.17;94606.22;4991083;28;7365;-62
2023/06/27 09:41:48;;;;;;;;;;;;;;;29.97;32.14;94606.97;4981991;28;7429;-63
2023/06/27 09:44:19;;;;;;;;;;;;;;;29.98;31.67;94604.94;4959897;28;10114;-63
2023/06/27 09:46:49;;;;;;;;;;;;;;;29.99;31.75;94603.66;5012297;28;7250;-63
2023/06/27 09:49:19;;;;;;;;;;;;;;;29.99;31.96;94601.66;5024733;28;7132;-63
2023/06/27 09:51:49;;;;;;;;;;;;;;;30.02;30.99;94608.88;5057702;28;7234;-62
2023/06/27 09:54:21;;;;;;;;;;;;;;;30.02;31.80;94603.34;5021253;28;9136;-62
2023/06/27 09:56:52;;;;;;;;;;;;;;;30.01;31.89;94601.84;5045198;28;9455;-62
2023/06/27 09:59:31;;;;;;;;;;;;;;;30.01;31.00;94599.09;5057051;28;7179;-62
2023/06/27 10:01:58;;;;;;;;;;;;;;;30.06;31.38;94608.56;5020943;28;8749;-62
2023/06/27 10:04:24;;;;;;;;;;;;;;;30.06;32.01;94600.97;5054667;28;6979;-63
2023/06/27 10:06:51;;;;;;;;;;;;;;;30.06;31.60;94600.97;5020213;28;7090;-63
2023/06/27 10:09:19;;;;;;;;;;;;;;;30.06;30.93;94598.22;5023265;28;9125;-62
2023/06/27 10:11:45;;;;;;;;;;;;;;;30.07;31.92;94605.25;5020369;28;9355;-62
2023/06/27 10:14:21;;;;;;;;;;;;;;;30.09;32.11;94613.03;5055651;28;7947;-62
2023/06/27 10:16:48;;;;;;;;;;;;;;;30.10;31.48;94604.16;5027649;28;7154;-62
2023/06/27 10:19:24;;;;;;;;;;;;;;;30.11;32.08;94608.44;5029064;28;9232;-62
2023/06/27 10:22:01;;;;;;;;;;;;;;;30.10;31.27;94593.06;5027589;28;7594;-62
2023/06/27 10:24:33;;;;;;;;;;;;;;;30.07;31.23;94590.63;5042446;28;7229;-62
2023/06/27 10:27:02;;;;;;;;;;;;;;;30.11;31.68;94602.16;5024799;28;9409;-62
2023/06/27 10:29:41;;;;;;;;;;;;;;;30.11;31.62;94588.28;5025583;28;7212;-62
2023/06/27 10:32:14;;;;;;;;;;;;;;;30.11;30.97;94591.81;5021625;28;9238;-62
2023/06/27 10:34:44;;;;;;;;;;;;;;;30.13;32.14;94591.25;5024513;28;7249;-62
2023/06/27 10:37:28;;;;;;;;;;;;;;;30.15;31.38;94599.78;5026490;28;8986;-62
2023/06/27 10:40:03;;;;;;;;;;;;;;;30.13;31.02;94596.81;5028537;28;9488;-62
2023/06/27 10:42:31;;;;;;;;;;;;;;;30.10;31.78;94587.53;5037403;28;8191;-61
2023/06/27 10:45:10;;;;;;;;;;;;;;;30.14;32.27;94592.75;5053443;28;7149;-61
2023/06/27 10:47:41;;;;;;;;;;;;;;;30.14;31.49;94590.75;5020272;28;7069;-61
2023/06/27 10:50:12;;;;;;;;;;;;;;;30.14;32.17;94601.84;5019708;28;9117;-62
2023/06/27 10:52:40;;;;;;;;;;;;;;;30.16;32.52;94588.19;5018675;28;7351;-62
2023/06/27 10:55:18;;;;;;;;;;;;;;;30.15;31.98;94586.66;5025316;28;7207;-63
2023/06/27 10:58:10;;;;;;;;;;;;;;;30.17;31.50;94581.34;5019664;28;7344;-63
2023/06/27 11:00:41;;;;;;;;;;;;;;;30.18;31.52;94577.28;5022690;28;7264;-62
2023/06/27 11:03:09;;;;;;;;;;;;;;;30.17;31.70;94575.78;5038207;28;9269;-62
2023/06/27 11:05:54;;;;;;;;;;;;;;;30.18;31.87;94577.28;5039379;28;7354;-62
2023/06/27 11:08:26;;;;;;;;;;;;;;;30.19;31.81;94576.00;5038248;28;9658;-62
2023/06/27 11:11:03;;;;;;;;;;;;;;;30.21;32.71;94575.47;5019811;28;7257;-62
2023/06/27 11:13:34;;;;;;;;;;;;;;;30.21;32.22;94570.66;5017465;28;9092;-62
2023/06/27 11:16:02;;;;;;;;;;;;;;;30.22;32.55;94565.84;5018886;28;7420;-62
2023/06/27 11:18:34;;;;;;;;;;;;;;;30.22;32.75;94560.28;5028065;28;8191;-62
2023/06/27 11:21:05;;;;;;;;;;;;;;;30.22;31.81;94563.81;5041969;28;7898;-62
2023/06/27 11:23:31;;;;;;;;;;;;;;;30.25;32.21;94565.53;5061565;28;9064;-62
2023/06/27 11:26:29;;;;;;;;;;;;;;;30.26;31.79;94555.91;5030187;28;6993;-62
2023/06/27 11:29:02;;;;;;;;;;;;;;;30.26;32.52;94558.69;5031384;28;7281;-62
2023/06/27 11:31:38;;;;;;;;;;;;;;;30.27;32.38;94560.19;5046954;28;7457;-62
2023/06/27 11:34:06;;;;;;;;;;;;;;;30.29;32.55;94548.53;5034806;28;7066;-62
2023/06/27 11:36:54;;;;;;;;;;;;;;;30.27;32.17;94551.13;5064512;28;7218;-63
2023/06/27 11:39:29;;;;;;;;;;;;;;;30.30;32.34;94550.78;5030678;28;9834;-63
2023/06/27 11:41:55;;;;;;;;;;;;;;;30.29;32.30;94548.53;5046185;28;7608;-63
2023/06/27 11:44:32;;;;;;;;;;;;;;;30.29;32.94;94540.22;5047037;28;8721;-62
2023/06/27 11:47:06;;;;;;;;;;;;;;;30.29;32.16;94546.53;5047174;28;7027;-62
2023/06/27 11:49:32;;;;;;;;;;;;;;;30.29;31.93;94546.53;5023305;28;9203;-62
2023/06/27 11:52:09;;;;;;;;;;;;;;;30.30;32.48;94536.91;5018566;28;7242;-62
2023/06/27 11:54:35;;;;;;;;;;;;;;;30.31;32.54;94530.09;5021631;28;7076;-62
2023/06/27 11:57:05;;;;;;;;;;;;;;;30.31;32.03;94527.31;5025067;28;7178;-62
2023/06/27 11:59:32;;;;;;;;;;;;;;;30.32;32.94;94534.34;5038577;28;7213;-62
2023/06/27 12:02:02;;;;;;;;;;;;;;;30.33;32.85;94532.34;5021502;28;9216;-62
2023/06/27 12:04:34;;;;;;;;;;;;;;;30.33;32.04;94533.09;5040684;28;7241;-62
2023/06/27 12:07:21;;;;;;;;;;;;;;;30.33;32.48;94524.75;5054082;28;9141;-63
2023/06/27 12:10:06;;;;;;;;;;;;;;;30.35;33.05;94524.97;5045819;28;9504;-63
2023/06/27 12:12:41;;;;;;;;;;;;;;;30.36;32.99;94520.88;5027819;28;7024;-62
2023/06/27 12:15:15;;;;;;;;;;;;;;;30.36;32.70;94526.44;5021530;28;8925;-62
2023/06/27 12:18:21;;;;;;;;;;;;;;;30.41;33.13;94533.16;5053888;28;7430;-62
2023/06/27 12:20:59;;;;;;;;;;;;;;;30.40;32.26;94515.03;5041006;28;7874;-63
2023/06/27 12:23:30;;;;;;;;;;;;;;;30.39;32.41;94510.75;5055025;28;9392;-62
2023/06/27 12:25:57;;;;;;;;;;;;;;;30.37;33.29;94516.84;5022230;28;8707;-62
2023/06/27 12:28:26;;;;;;;;;;;;;;;30.40;32.28;94521.31;5054267;28;9160;-62
2023/06/27 12:30:52;;;;;;;;;;;;;;;30.41;33.40;94513.72;5015106;28;7502;-62
2023/06/27 12:33:21;;;;;;;;;;;;;;;30.42;32.66;94506.91;5015256;28;7219;-62
2023/06/27 12:35:50;;;;;;;;;;;;;;;30.43;33.33;94505.59;5014233;28;6998;-62
2023/06/27 12:38:18;;;;;;;;;;;;;;;30.42;33.24;94490.25;5013977;28;9089;-62
2023/06/27 12:40:49;;;;;;;;;;;;;;;30.46;32.47;94496.94;5016768;28;7120;-62
2023/06/27 12:43:17;;;;;;;;;;;;;;;30.45;32.72;94489.16;5013965;28;7268;-62
2023/06/27 12:45:58;;;;;;;;;;;;;;;30.47;33.60;94497.69;5050629;28;7189;-62
2023/06/27 12:48:24;;;;;;;;;;;;;;;30.48;33.15;94488.06;5013123;28;7066;-62
2023/06/27 12:50:50;;;;;;;;;;;;;;;30.47;33.35;94487.31;5043824;28;7195;-62
2023/06/27 12:53:16;;;;;;;;;;;;;;;30.50;33.09;94500.13;5046227;28;7943;-62
2023/06/27 12:55:42;;;;;;;;;;;;;;;30.54;33.05;94497.00;5031922;28;9533;-63
2023/06/27 12:58:08;;;;;;;;;;;;;;;30.51;33.47;94487.72;5048252;28;9211;-62
2023/06/27 13:00:37;;;;;;;;;;;;;;;30.54;33.44;94497.00;5050454;28;7266;-62
2023/06/27 13:03:08;;;;;;;;;;;;;;;30.54;32.46;94486.66;5016017;28;7361;-62
2023/06/27 13:05:34;;;;;;;;;;;;;;;30.59;32.56;94489.84;5017035;28;9071;-62
2023/06/27 13:08:00;;;;;;;;;;;;;;;30.55;33.87;94487.41;5034310;28;7080;-62
2023/06/27 13:10:26;;;;;;;;;;;;;;;30.57;33.08;94489.63;5019833;28;7015;-62
2023/06/27 13:13:01;;;;;;;;;;;;;;;30.57;33.67;94500.75;5018183;28;7002;-62
2023/06/27 13:15:30;;;;;;;;;;;;;;;30.57;33.93;94490.38;5022306;28;9165;-62
2023/06/27 13:18:03;;;;;;;;;;;;;;;30.57;33.05;94492.41;5023859;28;7189;-62
2023/06/27 13:21:03;;;;;;;;;;;;;;;30.61;33.91;94492.81;5025751;28;6852;-62
2023/06/27 13:23:29;;;;;;;;;;;;;;;30.62;32.90;94485.97;4966829;28;9025;-62
2023/06/27 13:26:10;;;;;;;;;;;;;;;30.62;32.82;94491.53;4966187;28;7938;-62
2023/06/27 13:28:57;;;;;;;;;;;;;;;30.61;33.56;94487.25;4978199;28;7436;-62
2023/06/27 13:31:48;;;;;;;;;;;;;;;30.63;33.24;94488.22;4976654;28;7164;-62
2023/06/27 13:34:23;;;;;;;;;;;;;;;30.66;32.63;94492.69;4967160;28;7616;-62
2023/06/27 13:36:53;;;;;;;;;;;;;;;30.66;33.53;94486.38;4976612;28;9483;-62
2023/06/27 13:39:27;;;;;;;;;;;;;;;30.68;33.54;94489.34;4965717;28;7254;-62
2023/06/27 13:42:22;;;;;;;;;;;;;;;30.70;33.54;94486.78;4978946;28;7009;-62
2023/06/27 13:45:12;;;;;;;;;;;;;;;30.72;32.68;94484.22;4929248;29;9034;-62
2023/06/27 13:47:38;;;;;;;;;;;;;;;30.73;32.60;94469.81;4938323;29;8768;-63
2023/06/27 13:50:06;;;;;;;;;;;;;;;30.70;32.98;94470.13;4939235;28;7920;-62
2023/06/27 13:52:58;;;;;;;;;;;;;;;30.73;32.91;94469.81;4941799;28;6984;-62
2023/06/27 13:55:29;;;;;;;;;;;;;;;30.73;32.74;94469.81;4924618;29;7224;-63
2023/06/27 13:57:58;;;;;;;;;;;;;;;30.74;32.62;94462.94;4930798;28;7093;-62